Greymouth, New Zealand
Current Conditions -  °F | °C
As of 8:00 PM on Saturday 20 Dec 2014 (Local Time) from NZCH Reporting Station
Broken Clouds Broken Clouds  
Wind Chill: 73°   Ceiling: 8000
Heat Index: 73°   Visibility: 6mi
Dew Point: 52°   Wind: 7mph
Humidity: 47%   Direction: 20°NNE
Pressure: 29.59"   Gusts: NA
Location:  42.46°S, 171.21°E
Report Text: NZCH 200800Z AUTO 02006KT 9999 BKN080/// 23/11 Q1002 NOSIG
Loading
Personal Weather Stations






























Interactive Weather Map New forecast layout! Learn more

10-Day Weather Forecast

Advertisements
Track Severe Weather on mobile